createdAt,value
2022-11-25T00:05:02.660Z,13.60
2022-11-25T00:10:08.202Z,14.30
2022-11-25T00:15:12.958Z,15.67
2022-11-25T00:20:16.679Z,13.27
2022-11-25T00:25:20.061Z,14.23
2022-11-25T00:30:24.839Z,14.57
2022-11-25T00:35:28.270Z,12.87
2022-11-25T00:40:31.693Z,13.33
2022-11-25T00:45:36.574Z,14.13
2022-11-25T00:50:39.993Z,14.17
2022-11-25T00:56:00.751Z,16.57
2022-11-25T01:01:05.927Z,15.70
2022-11-25T01:06:11.183Z,14.30
2022-11-25T01:11:17.407Z,11.67
2022-11-25T01:16:22.568Z,14.27
2022-11-25T01:21:27.997Z,15.27
2022-11-25T01:26:31.461Z,13.43
2022-11-25T01:31:38.284Z,14.03
2022-11-25T01:36:41.927Z,15.40
2022-11-25T01:41:45.720Z,14.50
2022-11-25T01:47:04.836Z,14.00
2022-11-25T01:52:14.911Z,12.63
2022-11-25T01:57:25.821Z,15.30
2022-11-25T02:02:31.785Z,14.77
2022-11-25T02:07:38.817Z,15.10
2022-11-25T02:12:44.547Z,14.50
2022-11-25T02:17:49.411Z,15.03
2022-11-25T02:23:01.523Z,13.17
2022-11-25T02:28:08.876Z,14.03
2022-11-25T02:33:14.748Z,15.60
2022-11-25T02:38:23.636Z,15.23
2022-11-25T02:43:29.488Z,14.13
2022-11-25T02:49:06.773Z,13.07
2022-11-25T02:53:59.346Z,14.83
2022-11-25T02:59:05.720Z,14.77
2022-11-25T03:04:09.162Z,15.33
2022-11-25T03:09:12.654Z,15.60
2022-11-25T03:14:18.101Z,15.30
2022-11-25T03:19:21.536Z,14.50
2022-11-25T03:24:24.947Z,14.60
2022-11-25T03:29:29.847Z,17.93
2022-11-25T03:34:34.296Z,16.40
2022-11-25T03:39:38.974Z,17.50
2022-11-25T03:44:45.305Z,17.10
2022-11-25T03:49:49.051Z,19.83
2022-11-25T03:54:53.126Z,21.93
2022-11-25T04:00:00.272Z,22.43
2022-11-25T04:05:05.619Z,21.63
2022-11-25T04:10:10.624Z,28.50
2022-11-25T04:15:16.584Z,25.57
2022-11-25T04:20:21.113Z,31.33
2022-11-25T04:25:32.069Z,28.43
2022-11-25T04:30:38.232Z,28.90
2022-11-25T04:35:42.142Z,33.23
2022-11-25T04:40:47.077Z,31.50
2022-11-25T04:51:22.081Z,35.03
2022-11-25T04:56:29.545Z,31.60
2022-11-25T05:01:35.052Z,35.03
2022-11-25T05:06:54.145Z,36.13
2022-11-25T05:11:58.832Z,31.67
2022-11-25T05:17:03.971Z,38.33
2022-11-25T05:22:11.042Z,37.07
2022-11-25T05:27:15.166Z,35.07
2022-11-25T05:32:20.474Z,37.13
2022-11-25T05:37:24.708Z,34.90
2022-11-25T05:42:35.873Z,36.97
2022-11-25T05:47:42.842Z,36.60
2022-11-25T05:52:47.753Z,38.83
2022-11-25T05:57:51.241Z,38.60
2022-11-25T06:02:57.031Z,40.13
2022-11-25T06:08:00.564Z,42.17
2022-11-25T06:13:04.651Z,42.20
2022-11-25T06:18:09.671Z,34.63
2022-11-25T06:23:14.409Z,32.23
2022-11-25T06:28:17.989Z,28.13
2022-11-25T06:33:26.658Z,29.57
2022-11-25T06:38:31.387Z,26.93
2022-11-25T06:43:34.879Z,27.40
2022-11-25T06:48:39.726Z,22.03
2022-11-25T06:53:44.126Z,23.00
2022-11-25T06:58:48.714Z,24.97
2022-11-25T07:03:56.012Z,22.97
2022-11-25T07:08:59.719Z,25.13
2022-11-25T07:14:05.572Z,25.37
2022-11-25T07:19:12.693Z,22.03
2022-11-25T07:24:17.355Z,26.97
2022-11-25T07:29:51.678Z,25.53
2022-11-25T07:34:46.088Z,29.87
2022-11-25T07:39:49.455Z,25.80
2022-11-25T07:44:52.868Z,23.90
2022-11-25T07:50:23.618Z,18.23
2022-11-25T07:55:27.002Z,19.57
2022-11-25T08:00:30.444Z,21.20
2022-11-25T08:05:35.724Z,25.57
2022-11-25T08:10:41.303Z,24.27
2022-11-25T08:15:44.842Z,25.90
2022-11-25T08:20:49.633Z,24.70
2022-11-25T08:25:53.118Z,19.57
2022-11-25T08:31:03.411Z,19.87
2022-11-25T08:36:09.697Z,18.43
2022-11-25T08:41:14.589Z,18.30
2022-11-25T08:46:21.405Z,19.07
2022-11-25T08:51:28.885Z,18.43
2022-11-25T08:56:32.439Z,17.60
2022-11-25T09:01:35.963Z,18.60
2022-11-25T09:06:41.040Z,16.67
2022-11-25T09:11:44.473Z,19.20
2022-11-25T09:16:47.904Z,21.13
2022-11-25T09:21:52.663Z,16.13
2022-11-25T09:26:56.138Z,19.13
2022-11-25T09:31:59.742Z,17.20
2022-11-25T09:37:04.599Z,20.20
2022-11-25T09:42:43.547Z,21.67
2022-11-25T09:47:57.818Z,21.93
2022-11-25T09:53:12.299Z,18.73
2022-11-25T09:58:27.098Z,17.37
2022-11-25T10:03:39.077Z,15.83
2022-11-25T10:08:46.469Z,13.77
2022-11-25T10:13:56.054Z,13.40
2022-11-25T10:19:02.909Z,11.93
2022-11-25T10:24:14.566Z,15.73
2022-11-25T10:29:27.020Z,15.47
2022-11-25T10:34:38.118Z,16.97
2022-11-25T10:39:43.065Z,17.50
2022-11-25T10:44:46.437Z,17.00
2022-11-25T10:50:04.942Z,16.27
2022-11-25T10:55:15.550Z,17.33
2022-11-25T11:00:31.547Z,16.70
2022-11-25T11:05:35.129Z,17.17
2022-11-25T11:10:40.366Z,17.67
2022-11-25T11:15:48.059Z,19.17
2022-11-25T11:20:53.663Z,18.83
2022-11-25T11:26:01.853Z,19.30
2022-11-25T11:31:08.346Z,17.97
2022-11-25T11:36:27.069Z,17.40
2022-11-25T11:41:40.881Z,19.97
2022-11-25T11:47:03.207Z,16.57
2022-11-25T11:52:12.446Z,20.73
2022-11-25T11:57:30.225Z,19.13
2022-11-25T12:02:45.663Z,22.10
2022-11-25T12:08:03.131Z,17.03
2022-11-25T12:13:17.384Z,18.07
2022-11-25T12:18:33.927Z,17.97
2022-11-25T12:23:46.158Z,19.83
2022-11-25T12:28:56.385Z,18.33
2022-11-25T12:34:05.513Z,17.83
2022-11-25T12:39:20.161Z,20.23
2022-11-25T12:44:30.712Z,19.73
2022-11-25T12:49:43.954Z,17.63
2022-11-25T12:55:12.223Z,18.37
2022-11-25T13:06:18.435Z,21.60
2022-11-25T13:11:50.608Z,19.93
2022-11-25T13:16:57.734Z,22.80
2022-11-25T13:22:04.433Z,21.00
2022-11-25T13:27:30.575Z,22.53
2022-11-25T13:32:43.362Z,22.27
2022-11-25T13:37:46.818Z,20.77
2022-11-25T13:42:51.699Z,23.37
2022-11-25T13:48:05.082Z,21.07
2022-11-25T13:53:21.650Z,22.93
2022-11-25T13:58:26.948Z,20.97
2022-11-25T14:03:56.413Z,22.10
2022-11-25T14:09:05.386Z,21.80
2022-11-25T14:14:35.552Z,21.33
2022-11-25T14:20:05.418Z,22.87
2022-11-25T14:25:20.544Z,23.33
2022-11-25T14:30:24.703Z,24.13
2022-11-25T14:35:43.490Z,25.30
2022-11-25T14:40:55.045Z,25.07
2022-11-25T14:46:12.066Z,24.07
2022-11-25T14:51:18.681Z,26.87
2022-11-25T14:56:29.946Z,25.37
2022-11-25T15:01:35.919Z,23.87
2022-11-25T15:06:42.764Z,23.13
2022-11-25T15:11:46.678Z,27.60
2022-11-25T15:16:50.327Z,31.57
2022-11-25T15:22:22.604Z,30.33
2022-11-25T15:27:26.344Z,25.47
2022-11-25T15:32:34.003Z,25.30
2022-11-25T15:37:38.828Z,25.90
2022-11-25T15:42:43.862Z,33.90
2022-11-25T15:47:47.486Z,29.27
2022-11-25T15:52:56.449Z,25.30
2022-11-25T15:58:06.154Z,25.27
2022-11-25T16:03:21.103Z,26.70
2022-11-25T16:08:35.654Z,26.63
2022-11-25T16:13:40.548Z,26.37
2022-11-25T16:18:50.058Z,26.50
2022-11-25T16:23:58.724Z,29.40
2022-11-25T16:29:09.465Z,28.17
2022-11-25T16:34:15.712Z,37.30
2022-11-25T16:39:20.956Z,34.07
2022-11-25T16:44:26.309Z,31.60
2022-11-25T16:49:32.000Z,33.43
2022-11-25T16:54:37.837Z,34.37
2022-11-25T16:59:44.644Z,38.83
2022-11-25T17:04:49.001Z,47.23
2022-11-25T17:09:53.856Z,39.07
2022-11-25T17:14:59.676Z,33.83
2022-11-25T17:20:03.298Z,35.03
2022-11-25T17:25:09.335Z,40.40
2022-11-25T17:30:18.877Z,39.17
2022-11-25T17:35:22.721Z,42.27
2022-11-25T17:40:27.719Z,40.20
2022-11-25T17:45:31.722Z,42.10
2022-11-25T17:50:36.254Z,41.77
2022-11-25T17:55:43.468Z,45.50
2022-11-25T18:00:46.887Z,43.37
2022-11-25T18:05:50.288Z,40.27
2022-11-25T18:10:55.114Z,40.70
2022-11-25T18:15:58.583Z,42.10
2022-11-25T18:21:02.129Z,41.60
2022-11-25T18:26:07.357Z,35.63
2022-11-25T18:31:12.949Z,35.73
2022-11-25T18:36:16.659Z,31.50
2022-11-25T18:41:23.038Z,33.57
2022-11-25T18:46:26.826Z,30.50
2022-11-25T18:51:30.295Z,29.03
2022-11-25T18:56:36.100Z,27.87
2022-11-25T19:01:39.634Z,29.03
2022-11-25T19:06:43.559Z,32.23
2022-11-25T19:11:52.447Z,27.93
2022-11-25T19:16:56.355Z,25.43
2022-11-25T19:22:01.611Z,27.10
2022-11-25T19:27:06.607Z,27.43
2022-11-25T19:32:20.303Z,28.80
2022-11-25T19:37:24.318Z,29.67
2022-11-25T19:42:31.800Z,28.00
2022-11-25T19:47:35.358Z,27.63
2022-11-25T19:52:40.069Z,27.40
2022-11-25T19:57:44.970Z,30.53
2022-11-25T20:02:50.603Z,25.73
2022-11-25T20:07:54.096Z,27.53
2022-11-25T20:12:59.749Z,24.63
2022-11-25T20:18:03.180Z,20.27
2022-11-25T20:23:09.865Z,20.40
2022-11-25T20:28:18.517Z,23.53
2022-11-25T20:33:24.669Z,24.57
2022-11-25T20:38:31.316Z,24.53
2022-11-25T20:43:39.029Z,20.93
2022-11-25T20:48:42.610Z,20.13
2022-11-25T20:53:48.506Z,17.03
2022-11-25T20:58:53.660Z,19.17
2022-11-25T21:03:57.069Z,16.07
2022-11-25T21:09:02.610Z,18.67
2022-11-25T21:14:14.150Z,14.23
2022-11-25T21:19:17.632Z,13.83
2022-11-25T21:24:31.739Z,15.40
2022-11-25T21:29:36.797Z,16.67
2022-11-25T21:34:40.500Z,17.00
2022-11-25T21:39:44.098Z,16.57
2022-11-25T21:44:51.164Z,15.97
2022-11-25T21:49:54.710Z,15.20
2022-11-25T21:54:58.120Z,17.33
2022-11-25T22:00:03.018Z,13.97
2022-11-25T22:05:15.799Z,15.23
2022-11-25T22:10:19.578Z,15.40
2022-11-25T22:15:25.135Z,14.47
2022-11-25T22:20:30.992Z,17.50
2022-11-25T22:25:34.490Z,16.37
2022-11-25T22:30:39.340Z,16.50
2022-11-25T22:35:42.967Z,13.90
2022-11-25T22:40:50.898Z,14.63
2022-11-25T22:45:56.784Z,16.73
2022-11-25T22:51:00.173Z,16.23
2022-11-25T22:56:03.496Z,16.17
2022-11-25T23:01:14.418Z,17.43
2022-11-25T23:06:17.878Z,13.93
2022-11-25T23:11:21.986Z,13.80
2022-11-25T23:16:26.797Z,14.93
2022-11-25T23:21:30.360Z,14.30
2022-11-25T23:26:35.142Z,15.37
2022-11-25T23:31:41.133Z,15.67
2022-11-25T23:36:47.653Z,17.77
2022-11-25T23:41:51.788Z,15.10
2022-11-25T23:47:00.178Z,16.60
2022-11-25T23:52:08.041Z,14.23
2022-11-25T23:57:15.432Z,14.17
